createdAt,value
2023-09-17T00:02:10.531Z,59.98
2023-09-17T00:05:13.098Z,59.88
2023-09-17T00:08:15.584Z,60.13
2023-09-17T00:11:18.112Z,60.33
2023-09-17T00:14:20.604Z,60.12
2023-09-17T00:17:23.671Z,60.30
2023-09-17T00:20:26.372Z,60.23
2023-09-17T00:23:28.796Z,60.19
2023-09-17T00:26:32.208Z,60.20
2023-09-17T00:29:35.157Z,60.26
2023-09-17T00:32:37.622Z,60.26
2023-09-17T00:35:40.027Z,60.24
2023-09-17T00:38:42.472Z,60.31
2023-09-17T00:41:45.053Z,60.38
2023-09-17T00:44:47.399Z,60.35
2023-09-17T00:47:49.834Z,60.38
2023-09-17T00:50:52.333Z,60.37
2023-09-17T00:53:56.799Z,60.06
2023-09-17T00:56:59.687Z,59.94
2023-09-17T01:00:04.096Z,60.25
2023-09-17T01:03:10.071Z,60.33
2023-09-17T01:06:13.849Z,60.14
2023-09-17T01:09:16.916Z,60.35
2023-09-17T01:12:19.469Z,60.41
2023-09-17T01:15:21.841Z,60.51
2023-09-17T01:18:24.259Z,60.46
2023-09-17T01:21:40.191Z,60.27
2023-09-17T01:25:07.863Z,60.53
2023-09-17T01:28:14.504Z,60.41
2023-09-17T01:31:17.275Z,60.45
2023-09-17T01:34:19.803Z,60.36
2023-09-17T01:37:26.015Z,60.64
2023-09-17T01:40:29.528Z,60.59
2023-09-17T01:43:33.751Z,60.27
2023-09-17T01:46:37.497Z,60.77
2023-09-17T01:49:41.940Z,60.40
2023-09-17T01:52:44.611Z,60.67
2023-09-17T01:55:52.171Z,60.57
2023-09-17T01:58:54.665Z,60.56
2023-09-17T02:01:57.488Z,60.63
2023-09-17T02:04:59.904Z,60.58
2023-09-17T02:08:02.304Z,60.69
2023-09-17T02:11:07.213Z,60.65
2023-09-17T02:14:09.602Z,60.62
2023-09-17T02:17:13.756Z,60.38
2023-09-17T02:20:17.121Z,60.89
2023-09-17T02:23:19.497Z,60.38
2023-09-17T02:26:22.893Z,60.64
2023-09-17T02:29:25.296Z,60.81
2023-09-17T02:32:28.158Z,60.63
2023-09-17T02:35:30.676Z,60.76
2023-09-17T02:38:33.211Z,60.90
2023-09-17T02:41:35.589Z,60.74
2023-09-17T02:44:38.088Z,60.70
2023-09-17T02:47:41.798Z,60.46
2023-09-17T02:50:44.933Z,60.83
2023-09-17T02:53:48.243Z,60.55
2023-09-17T02:56:50.921Z,60.76
2023-09-17T02:59:53.449Z,60.87
2023-09-17T03:02:56.264Z,60.85
2023-09-17T03:06:00.624Z,60.95
2023-09-17T03:09:08.827Z,61.06
2023-09-17T03:12:12.055Z,60.74
2023-09-17T03:15:14.864Z,60.88
2023-09-17T03:18:17.465Z,60.68
2023-09-17T03:21:20.293Z,60.73
2023-09-17T03:24:22.757Z,60.86
2023-09-17T03:27:25.242Z,60.74
2023-09-17T03:30:28.489Z,60.94
2023-09-17T03:33:33.293Z,60.99
2023-09-17T03:36:38.638Z,60.67
2023-09-17T03:39:44.604Z,60.94
2023-09-17T03:42:48.556Z,60.71
2023-09-17T03:45:52.477Z,60.86
2023-09-17T03:48:54.927Z,60.83
2023-09-17T03:51:57.366Z,61.13
2023-09-17T03:54:59.819Z,61.08
2023-09-17T03:58:02.524Z,60.93
2023-09-17T04:01:10.642Z,61.04
2023-09-17T04:04:13.158Z,61.30
2023-09-17T04:07:15.633Z,60.92
2023-09-17T04:10:18.916Z,60.97
2023-09-17T04:13:21.505Z,60.93
2023-09-17T04:16:24.915Z,60.99
2023-09-17T04:19:29.513Z,60.93
2023-09-17T04:22:34.705Z,60.90
2023-09-17T04:25:37.277Z,60.92
2023-09-17T04:28:40.184Z,60.75
2023-09-17T04:31:42.688Z,60.96
2023-09-17T04:34:45.198Z,61.03
2023-09-17T04:37:49.497Z,60.91
2023-09-17T04:40:53.563Z,61.02
2023-09-17T04:43:56.069Z,60.96
2023-09-17T04:46:58.775Z,61.09
2023-09-17T04:50:02.179Z,60.90
2023-09-17T04:53:05.504Z,60.89
2023-09-17T04:56:08.300Z,61.01
2023-09-17T04:59:12.110Z,61.17
2023-09-17T05:02:17.946Z,60.75
2023-09-17T05:05:24.190Z,60.74
2023-09-17T05:08:28.845Z,60.87
2023-09-17T05:11:31.567Z,60.75
2023-09-17T05:14:33.974Z,60.63
2023-09-17T05:17:38.037Z,60.45
2023-09-17T05:20:44.963Z,60.43
2023-09-17T05:23:47.562Z,60.80
2023-09-17T05:26:50.107Z,60.76
2023-09-17T05:29:53.188Z,60.48
2023-09-17T05:32:56.138Z,60.55
2023-09-17T05:35:58.715Z,60.19
2023-09-17T05:39:04.570Z,60.25
2023-09-17T05:42:07.639Z,60.22
2023-09-17T05:45:10.670Z,60.19
2023-09-17T05:48:13.126Z,59.84
2023-09-17T05:51:15.861Z,59.69
2023-09-17T05:54:18.990Z,59.96
2023-09-17T05:57:21.710Z,60.05
2023-09-17T06:00:24.314Z,59.56
2023-09-17T06:03:26.769Z,59.56
2023-09-17T06:06:29.528Z,59.36
2023-09-17T06:09:32.829Z,59.68
2023-09-17T06:12:35.284Z,59.37
2023-09-17T06:15:39.515Z,59.12
2023-09-17T06:18:42.004Z,59.21
2023-09-17T06:21:44.806Z,59.30
2023-09-17T06:24:47.596Z,59.12
2023-09-17T06:27:50.048Z,59.36
2023-09-17T06:30:52.732Z,58.86
2023-09-17T06:33:55.424Z,59.10
2023-09-17T06:36:58.064Z,58.64
2023-09-17T06:40:00.461Z,58.78
2023-09-17T06:43:03.491Z,58.45
2023-09-17T06:46:05.958Z,58.55
2023-09-17T06:49:08.370Z,58.07
2023-09-17T06:52:10.849Z,57.89
2023-09-17T06:55:13.428Z,57.68
2023-09-17T06:58:18.044Z,57.41
2023-09-17T07:01:20.641Z,57.27
2023-09-17T07:04:23.283Z,57.14
2023-09-17T07:07:25.890Z,57.06
2023-09-17T07:10:28.446Z,56.87
2023-09-17T07:13:31.488Z,56.23
2023-09-17T07:16:33.953Z,55.71
2023-09-17T07:19:36.961Z,55.43
2023-09-17T07:22:39.414Z,55.46
2023-09-17T07:25:41.953Z,55.06
2023-09-17T07:28:44.972Z,54.96
2023-09-17T07:31:48.513Z,54.72
2023-09-17T07:34:51.074Z,54.80
2023-09-17T07:37:53.541Z,54.58
2023-09-17T07:40:56.068Z,54.36
2023-09-17T07:43:59.962Z,54.06
2023-09-17T07:47:04.063Z,54.30
2023-09-17T07:50:07.131Z,53.91
2023-09-17T07:53:09.562Z,54.39
2023-09-17T07:56:11.912Z,53.77
2023-09-17T07:59:14.272Z,54.05
2023-09-17T08:02:17.082Z,54.05
2023-09-17T08:05:19.573Z,53.78
2023-09-17T08:08:21.998Z,53.56
2023-09-17T08:11:28.285Z,53.87
2023-09-17T08:14:30.710Z,53.90
2023-09-17T08:17:33.142Z,54.09
2023-09-17T08:20:35.589Z,53.99
2023-09-17T08:23:37.927Z,54.27
2023-09-17T08:26:40.314Z,54.01
2023-09-17T08:29:42.731Z,53.95
2023-09-17T08:32:45.777Z,54.28
2023-09-17T08:35:48.448Z,54.07
2023-09-17T08:38:51.701Z,54.04
2023-09-17T08:41:54.149Z,53.73
2023-09-17T08:44:58.180Z,54.04
2023-09-17T08:48:00.663Z,54.13
2023-09-17T08:51:04.320Z,53.75
2023-09-17T08:54:09.892Z,54.04
2023-09-17T08:57:14.166Z,54.23
2023-09-17T09:00:18.862Z,53.88
2023-09-17T09:03:22.118Z,53.76
2023-09-17T09:06:26.167Z,53.82
2023-09-17T09:09:28.749Z,54.04
2023-09-17T09:12:31.412Z,54.04
2023-09-17T09:15:33.979Z,53.79
2023-09-17T09:18:36.452Z,53.93
2023-09-17T09:21:38.846Z,54.22
2023-09-17T09:24:48.898Z,54.04
2023-09-17T09:27:51.323Z,54.24
2023-09-17T09:30:53.993Z,53.93
2023-09-17T09:34:02.922Z,54.30
2023-09-17T09:37:09.733Z,54.27
2023-09-17T09:40:12.613Z,53.88
2023-09-17T09:43:33.766Z,54.09
2023-09-17T09:46:37.218Z,54.38
2023-09-17T09:49:41.650Z,53.95
2023-09-17T09:52:44.114Z,54.29
2023-09-17T09:55:48.088Z,54.20
2023-09-17T09:58:50.507Z,54.38
2023-09-17T10:01:53.178Z,54.52
2023-09-17T10:04:55.704Z,54.28
2023-09-17T10:07:58.155Z,54.48
2023-09-17T10:11:00.696Z,54.63
2023-09-17T10:14:07.300Z,54.53
2023-09-17T10:17:12.389Z,54.43
2023-09-17T10:20:16.650Z,54.33
2023-09-17T10:23:20.266Z,54.68
2023-09-17T10:26:23.419Z,54.72
2023-09-17T10:29:26.714Z,54.42
2023-09-17T10:32:30.248Z,54.79
2023-09-17T10:35:33.514Z,54.62
2023-09-17T10:38:37.209Z,54.58
2023-09-17T10:41:40.697Z,54.50
2023-09-17T10:44:43.995Z,54.56
2023-09-17T10:47:47.622Z,54.72
2023-09-17T10:50:50.106Z,54.59
2023-09-17T10:53:52.734Z,54.77
2023-09-17T10:56:56.999Z,54.90
2023-09-17T11:00:00.106Z,54.68
2023-09-17T11:03:04.997Z,54.79
2023-09-17T11:06:15.312Z,54.92
2023-09-17T11:09:18.392Z,55.09
2023-09-17T11:12:24.192Z,54.94
2023-09-17T11:15:26.755Z,54.70
2023-09-17T11:18:29.161Z,54.71
2023-09-17T11:21:31.608Z,54.61
2023-09-17T11:24:34.249Z,54.68
2023-09-17T11:28:10.076Z,54.58
2023-09-17T11:31:15.338Z,54.78
2023-09-17T11:34:17.817Z,54.62
2023-09-17T11:37:22.026Z,54.92
2023-09-17T11:40:24.411Z,55.03
2023-09-17T11:43:26.784Z,54.69
2023-09-17T11:46:29.632Z,54.61
2023-09-17T11:49:32.560Z,54.63
2023-09-17T11:52:35.997Z,54.65
2023-09-17T11:55:39.407Z,54.90
2023-09-17T11:58:43.362Z,54.84
2023-09-17T12:01:47.357Z,54.93
2023-09-17T12:04:51.427Z,54.86
2023-09-17T12:07:55.610Z,54.75
2023-09-17T12:11:03.592Z,54.78
2023-09-17T12:14:07.907Z,54.77
2023-09-17T12:17:11.316Z,54.88
2023-09-17T12:21:00.318Z,54.28
2023-09-17T12:24:07.805Z,54.50
2023-09-17T12:27:39.467Z,54.63
2023-09-17T12:30:42.110Z,54.52
2023-09-17T12:33:44.656Z,54.60
2023-09-17T12:36:47.133Z,54.81
2023-09-17T12:39:50.995Z,54.76
2023-09-17T12:42:53.414Z,54.54
2023-09-17T12:45:55.858Z,54.52
2023-09-17T12:48:58.285Z,54.64
2023-09-17T12:52:01.725Z,54.87
2023-09-17T12:55:04.948Z,54.79
2023-09-17T12:58:08.800Z,54.61
2023-09-17T13:01:12.260Z,54.50
2023-09-17T13:04:14.905Z,55.04
2023-09-17T13:07:18.118Z,54.81
2023-09-17T13:10:23.116Z,54.70
2023-09-17T13:13:27.147Z,54.90
2023-09-17T13:16:29.983Z,54.83
2023-09-17T13:19:32.967Z,54.79
2023-09-17T13:22:37.035Z,54.48
2023-09-17T13:25:39.499Z,54.62
2023-09-17T13:28:42.579Z,54.49
2023-09-17T13:31:49.723Z,54.73
2023-09-17T13:34:53.179Z,54.85
2023-09-17T13:37:55.640Z,54.65
2023-09-17T13:40:58.232Z,54.88
2023-09-17T13:44:00.773Z,54.69
2023-09-17T13:47:03.724Z,54.78
2023-09-17T13:50:06.871Z,54.61
2023-09-17T13:53:09.353Z,54.95
2023-09-17T13:56:11.993Z,54.60
2023-09-17T13:59:14.482Z,54.84
2023-09-17T14:02:17.781Z,54.80
2023-09-17T14:05:20.415Z,54.94
2023-09-17T14:08:22.900Z,54.92
2023-09-17T14:11:27.155Z,54.96
2023-09-17T14:14:29.705Z,54.81
2023-09-17T14:17:32.100Z,55.02
2023-09-17T14:20:35.943Z,54.75
2023-09-17T14:23:38.467Z,55.19
2023-09-17T14:26:40.831Z,54.98
2023-09-17T14:29:45.222Z,54.71
2023-09-17T14:32:48.477Z,54.92
2023-09-17T14:35:50.998Z,55.05
2023-09-17T14:38:53.752Z,55.29
2023-09-17T14:41:56.624Z,54.96
2023-09-17T14:44:59.089Z,55.05
2023-09-17T14:48:01.582Z,55.16
2023-09-17T14:51:04.079Z,55.05
2023-09-17T14:54:06.802Z,55.26
2023-09-17T14:57:09.392Z,55.22
2023-09-17T15:00:15.538Z,55.07
2023-09-17T15:03:18.228Z,55.16
2023-09-17T15:06:20.708Z,55.27
2023-09-17T15:09:25.053Z,55.27
2023-09-17T15:12:29.130Z,55.10
2023-09-17T15:15:32.505Z,55.46
2023-09-17T15:18:34.856Z,55.41
2023-09-17T15:21:37.332Z,55.38
2023-09-17T15:24:39.900Z,55.54
2023-09-17T15:27:42.314Z,55.26
2023-09-17T15:30:46.898Z,55.36
2023-09-17T15:33:50.387Z,55.34
2023-09-17T15:36:53.161Z,55.35
2023-09-17T15:39:55.634Z,55.37
2023-09-17T15:42:58.136Z,55.42
2023-09-17T15:46:00.510Z,55.47
2023-09-17T15:49:04.003Z,55.32
2023-09-17T15:52:06.437Z,55.37
2023-09-17T15:55:09.875Z,55.71
2023-09-17T15:58:12.739Z,55.40
2023-09-17T16:01:15.390Z,55.44
2023-09-17T16:04:17.883Z,55.56
2023-09-17T16:07:20.435Z,55.56
2023-09-17T16:10:24.155Z,55.72
2023-09-17T16:13:27.094Z,55.78
2023-09-17T16:16:29.732Z,55.84
2023-09-17T16:19:32.204Z,55.72
2023-09-17T16:22:35.140Z,55.90
2023-09-17T16:25:39.208Z,55.66
2023-09-17T16:28:41.846Z,55.79
2023-09-17T16:31:44.299Z,55.71
2023-09-17T16:34:49.069Z,55.79
2023-09-17T16:37:51.767Z,55.77
2023-09-17T16:40:54.286Z,55.70
2023-09-17T16:43:56.744Z,55.60
2023-09-17T16:46:59.145Z,55.84
2023-09-17T16:50:02.129Z,55.87
2023-09-17T16:53:04.821Z,55.83
2023-09-17T16:56:07.381Z,55.74
2023-09-17T16:59:10.368Z,56.31
2023-09-17T17:02:13.559Z,55.73
2023-09-17T17:05:16.019Z,55.94
2023-09-17T17:08:18.467Z,55.90
2023-09-17T17:11:21.618Z,55.99
2023-09-17T17:14:24.419Z,56.09
2023-09-17T17:17:28.769Z,56.09
2023-09-17T17:20:31.225Z,56.00
2023-09-17T17:23:33.681Z,56.20
2023-09-17T17:26:39.606Z,56.18
2023-09-17T17:29:41.992Z,56.21
2023-09-17T17:32:46.227Z,56.43
2023-09-17T17:35:48.999Z,56.54
2023-09-17T17:38:51.562Z,56.35
2023-09-17T17:41:54.125Z,56.53
2023-09-17T17:44:57.289Z,56.65
2023-09-17T17:47:59.940Z,56.55
2023-09-17T17:51:02.611Z,56.66
2023-09-17T17:54:05.243Z,56.79
2023-09-17T17:57:08.825Z,56.87
2023-09-17T18:00:11.807Z,56.69
2023-09-17T18:03:14.403Z,56.77
2023-09-17T18:06:17.526Z,56.95
2023-09-17T18:09:20.101Z,57.10
2023-09-17T18:12:22.701Z,56.94
2023-09-17T18:15:25.216Z,56.94
2023-09-17T18:18:29.596Z,57.41
2023-09-17T18:21:32.082Z,56.88
2023-09-17T18:24:34.783Z,57.31
2023-09-17T18:27:38.499Z,57.36
2023-09-17T18:30:40.957Z,57.33
2023-09-17T18:33:43.578Z,57.29
2023-09-17T18:36:46.172Z,57.31
2023-09-17T18:39:48.775Z,57.45
2023-09-17T18:42:51.261Z,57.27
2023-09-17T18:45:53.761Z,57.39
2023-09-17T18:48:56.423Z,57.46
2023-09-17T18:51:59.266Z,57.58
2023-09-17T18:55:02.520Z,57.54
2023-09-17T18:58:05.296Z,57.53
2023-09-17T19:01:07.819Z,57.50
2023-09-17T19:04:10.423Z,57.81
2023-09-17T19:07:12.881Z,57.59
2023-09-17T19:10:16.311Z,57.69
2023-09-17T19:13:18.784Z,57.93
2023-09-17T19:16:21.553Z,57.72
2023-09-17T19:19:24.246Z,57.64
2023-09-17T19:22:26.961Z,57.84
2023-09-17T19:25:29.542Z,57.88
2023-09-17T19:28:32.168Z,57.80
2023-09-17T19:31:34.790Z,57.96
2023-09-17T19:34:37.459Z,57.77
2023-09-17T19:37:40.032Z,57.95
2023-09-17T19:40:42.566Z,58.03
2023-09-17T19:43:45.141Z,58.16
2023-09-17T19:46:47.654Z,57.88
2023-09-17T19:49:50.315Z,58.25
2023-09-17T19:52:53.024Z,58.08
2023-09-17T19:55:56.762Z,57.94
2023-09-17T19:59:00.105Z,58.13
2023-09-17T20:02:02.615Z,58.09
2023-09-17T20:05:06.262Z,58.02
2023-09-17T20:08:09.907Z,58.04
2023-09-17T20:11:12.658Z,58.25
2023-09-17T20:14:15.133Z,57.92
2023-09-17T20:17:18.004Z,58.25
2023-09-17T20:20:21.133Z,58.31
2023-09-17T20:23:23.953Z,58.40
2023-09-17T20:26:27.930Z,58.28
2023-09-17T20:29:30.440Z,58.36
2023-09-17T20:32:33.012Z,58.30
2023-09-17T20:35:38.101Z,58.20
2023-09-17T20:38:42.107Z,58.49
2023-09-17T20:41:46.182Z,58.56
2023-09-17T20:44:49.101Z,58.38
2023-09-17T20:47:51.534Z,58.32
2023-09-17T20:50:54.045Z,58.43
2023-09-17T20:53:56.491Z,58.50
2023-09-17T20:57:00.563Z,58.54
2023-09-17T21:00:06.466Z,58.49
2023-09-17T21:03:09.186Z,58.67
2023-09-17T21:06:13.109Z,58.68
2023-09-17T21:09:26.376Z,58.56
2023-09-17T21:12:29.900Z,58.66
2023-09-17T21:15:32.464Z,58.78
2023-09-17T21:18:34.892Z,58.58
2023-09-17T21:21:37.284Z,58.54
2023-09-17T21:24:39.975Z,58.73
2023-09-17T21:27:44.118Z,58.58
2023-09-17T21:30:46.653Z,58.44
2023-09-17T21:33:49.014Z,58.77
2023-09-17T21:36:52.325Z,58.64
2023-09-17T21:39:54.691Z,58.93
2023-09-17T21:42:57.120Z,58.73
2023-09-17T21:45:59.504Z,58.76
2023-09-17T21:49:01.922Z,58.74
2023-09-17T21:52:04.587Z,58.77
2023-09-17T21:55:07.509Z,58.71
2023-09-17T21:58:10.160Z,58.97
2023-09-17T22:01:13.089Z,58.96
2023-09-17T22:04:16.061Z,58.92
2023-09-17T22:07:18.713Z,58.98
2023-09-17T22:10:21.097Z,58.84
2023-09-17T22:13:23.559Z,58.91
2023-09-17T22:16:25.951Z,58.87
2023-09-17T22:19:29.148Z,59.01
2023-09-17T22:22:31.586Z,59.16
2023-09-17T22:25:33.979Z,58.83
2023-09-17T22:28:36.487Z,58.97
2023-09-17T22:31:38.968Z,59.11
2023-09-17T22:34:41.375Z,59.00
2023-09-17T22:37:43.734Z,59.06
2023-09-17T22:40:46.229Z,59.04
2023-09-17T22:43:49.862Z,59.40
2023-09-17T22:46:52.502Z,59.07
2023-09-17T22:49:55.388Z,59.15
2023-09-17T22:52:57.861Z,59.29
2023-09-17T22:56:00.298Z,59.36
2023-09-17T22:59:04.400Z,59.16
2023-09-17T23:02:07.009Z,59.17
2023-09-17T23:05:09.677Z,59.36
2023-09-17T23:08:12.203Z,59.25
2023-09-17T23:11:14.730Z,59.15
2023-09-17T23:14:17.194Z,59.20
2023-09-17T23:17:19.649Z,59.51
2023-09-17T23:20:22.131Z,59.35
2023-09-17T23:23:24.649Z,59.25
2023-09-17T23:26:29.067Z,59.29
2023-09-17T23:29:31.762Z,59.37
2023-09-17T23:32:34.564Z,59.37
2023-09-17T23:35:37.575Z,59.24
2023-09-17T23:38:39.971Z,59.39
2023-09-17T23:41:42.384Z,59.52
2023-09-17T23:44:44.921Z,59.29
2023-09-17T23:47:47.475Z,59.28
2023-09-17T23:50:51.690Z,59.44
2023-09-17T23:53:54.078Z,59.25
2023-09-17T23:56:56.398Z,59.35
2023-09-17T23:59:58.723Z,59.44
